Terminal Aerodrome Forecast
Issued by NWS

Home | Current Version | Previous Version | Text Only | Print | Product List | Glossary On
Versions: 1 2 3 4 5 6 7 8 9 10 11 12 13 14 15 16 17 18 19 20 21 22 23 24
000
FTAK31 PAFA 281136
TAFAFA
TAF
PAFA 281136Z 2812/2918 06003KT P6SM FEW080 SCT110
     FM281500 25008KT P6SM BKN050 OVC070
     FM282200 24007KT P6SM -SHRA SCT025 OVC050
     FM290400 27005KT P6SM FEW070 SCT100
     FM291400 VRB03KT 4SM BR SCT005=

USA.gov is the U.S. government's official web portal to all federal, state and local government web resources and services.